sensor_id;sensor_type;location;lat;lon;timestamp;P1;durP1;ratioP1;P2;durP2;ratioP2
12869;SDS011;6503;48.572;13.460;2022-08-19T07:37:11;15.13;;;12.80;;
12869;SDS011;6503;48.572;13.460;2022-08-19T07:39:41;15.80;;;14.13;;
12869;SDS011;6503;48.572;13.460;2022-08-19T07:44:40;17.55;;;14.02;;
12869;SDS011;6503;48.572;13.460;2022-08-19T07:47:12;15.48;;;13.50;;
12869;SDS011;6503;48.572;13.460;2022-08-19T07:49:51;18.52;;;14.77;;
12869;SDS011;6503;48.572;13.460;2022-08-19T07:52:24;16.98;;;13.80;;
12869;SDS011;6503;48.572;13.460;2022-08-19T07:54:53;19.90;;;16.20;;
12869;SDS011;6503;48.572;13.460;2022-08-19T07:57:26;17.65;;;14.95;;
12869;SDS011;6503;48.572;13.460;2022-08-19T07:59:57;17.10;;;14.15;;
12869;SDS011;6503;48.572;13.460;2022-08-19T08:02:27;18.45;;;14.73;;
12869;SDS011;6503;48.572;13.460;2022-08-19T08:07:46;18.02;;;14.25;;
12869;SDS011;6503;48.572;13.460;2022-08-19T08:10:32;18.77;;;15.20;;
12869;SDS011;6503;48.572;13.460;2022-08-19T08:13:03;16.75;;;14.32;;
12869;SDS011;6503;48.572;13.460;2022-08-19T08:15:33;18.35;;;14.93;;
12869;SDS011;6503;48.572;13.460;2022-08-19T08:18:05;17.17;;;14.77;;
12869;SDS011;6503;48.572;13.460;2022-08-19T08:20:35;21.80;;;16.08;;
12869;SDS011;6503;48.572;13.460;2022-08-19T08:23:08;16.90;;;14.35;;
12869;SDS011;6503;48.572;13.460;2022-08-19T08:25:51;20.40;;;15.48;;
12869;SDS011;6503;48.572;13.460;2022-08-19T08:28:22;19.52;;;15.20;;
12869;SDS011;6503;48.572;13.460;2022-08-19T08:30:56;23.08;;;16.35;;
12869;SDS011;6503;48.572;13.460;2022-08-19T08:35:56;19.70;;;16.02;;
12869;SDS011;6503;48.572;13.460;2022-08-19T08:38:28;21.70;;;17.42;;
12869;SDS011;6503;48.572;13.460;2022-08-19T08:40:59;19.88;;;17.17;;
12869;SDS011;6503;48.572;13.460;2022-08-19T08:43:37;22.60;;;16.80;;
12869;SDS011;6503;48.572;13.460;2022-08-19T08:46:12;23.92;;;17.45;;
12869;SDS011;6503;48.572;13.460;2022-08-19T08:48:49;22.20;;;17.73;;
12869;SDS011;6503;48.572;13.460;2022-08-19T08:51:26;22.80;;;18.00;;
12869;SDS011;6503;48.572;13.460;2022-08-19T08:54:04;28.15;;;18.35;;
12869;SDS011;6503;48.572;13.460;2022-08-19T08:56:38;22.88;;;18.23;;
12869;SDS011;6503;48.572;13.460;2022-08-19T08:59:12;23.02;;;16.60;;
12869;SDS011;6503;48.572;13.460;2022-08-19T09:01:49;19.48;;;16.58;;
12869;SDS011;6503;48.572;13.460;2022-08-19T09:04:22;21.58;;;16.40;;
12869;SDS011;6503;48.572;13.460;2022-08-19T09:06:53;20.02;;;17.52;;
12869;SDS011;6503;48.572;13.460;2022-08-19T09:09:45;20.45;;;16.88;;
12869;SDS011;6503;48.572;13.460;2022-08-19T09:12:34;20.85;;;16.25;;
12869;SDS011;6503;48.572;13.460;2022-08-19T09:15:16;21.67;;;16.92;;
12869;SDS011;6503;48.572;13.460;2022-08-19T09:17:59;19.10;;;15.35;;
12869;SDS011;6503;48.572;13.460;2022-08-19T09:20:30;18.92;;;15.43;;
12869;SDS011;6503;48.572;13.460;2022-08-19T09:23:00;19.80;;;16.05;;
12869;SDS011;6503;48.572;13.460;2022-08-19T09:28:02;18.33;;;14.82;;
12869;SDS011;6503;48.572;13.460;2022-08-19T09:30:32;21.52;;;14.60;;
12869;SDS011;6503;48.572;13.460;2022-08-19T09:33:07;18.40;;;15.70;;
12869;SDS011;6503;48.572;13.460;2022-08-19T09:35:38;20.98;;;15.43;;
12869;SDS011;6503;48.572;13.460;2022-08-19T09:38:10;21.55;;;15.68;;
12869;SDS011;6503;48.572;13.460;2022-08-19T09:40:42;18.52;;;16.63;;
12869;SDS011;6503;48.572;13.460;2022-08-19T09:43:12;16.33;;;14.55;;
12869;SDS011;6503;48.572;13.460;2022-08-19T09:45:42;17.40;;;15.25;;
12869;SDS011;6503;48.572;13.460;2022-08-19T09:48:13;19.45;;;15.88;;
12869;SDS011;6503;48.572;13.460;2022-08-19T09:50:44;21.48;;;16.67;;
12869;SDS011;6503;48.572;13.460;2022-08-19T09:53:16;19.50;;;16.25;;
12869;SDS011;6503;48.572;13.460;2022-08-19T09:55:51;17.95;;;16.02;;
12869;SDS011;6503;48.572;13.460;2022-08-19T09:58:23;19.90;;;17.20;;
12869;SDS011;6503;48.572;13.460;2022-08-19T10:00:54;18.55;;;16.35;;
12869;SDS011;6503;48.572;13.460;2022-08-19T10:03:24;19.02;;;15.32;;
12869;SDS011;6503;48.572;13.460;2022-08-19T10:05:56;20.55;;;16.23;;
12869;SDS011;6503;48.572;13.460;2022-08-19T10:08:28;20.30;;;14.80;;
12869;SDS011;6503;48.572;13.460;2022-08-19T10:11:02;17.98;;;15.45;;
12869;SDS011;6503;48.572;13.460;2022-08-19T10:13:34;16.75;;;14.32;;
12869;SDS011;6503;48.572;13.460;2022-08-19T10:16:06;15.73;;;13.27;;
12869;SDS011;6503;48.572;13.460;2022-08-19T10:18:39;19.92;;;16.30;;
12869;SDS011;6503;48.572;13.460;2022-08-19T10:21:11;18.95;;;16.50;;
12869;SDS011;6503;48.572;13.460;2022-08-19T10:23:42;17.80;;;15.48;;
12869;SDS011;6503;48.572;13.460;2022-08-19T10:26:18;17.00;;;14.02;;
12869;SDS011;6503;48.572;13.460;2022-08-19T10:28:50;18.23;;;15.88;;
12869;SDS011;6503;48.572;13.460;2022-08-19T10:31:21;17.80;;;14.23;;
12869;SDS011;6503;48.572;13.460;2022-08-19T10:33:52;19.50;;;15.75;;
12869;SDS011;6503;48.572;13.460;2022-08-19T10:36:24;19.70;;;15.18;;
12869;SDS011;6503;48.572;13.460;2022-08-19T10:38:55;16.20;;;14.05;;
12869;SDS011;6503;48.572;13.460;2022-08-19T10:41:31;20.60;;;14.07;;
12869;SDS011;6503;48.572;13.460;2022-08-19T10:44:03;19.08;;;14.75;;
12869;SDS011;6503;48.572;13.460;2022-08-19T10:46:37;15.18;;;13.30;;
12869;SDS011;6503;48.572;13.460;2022-08-19T10:49:11;14.23;;;12.65;;
12869;SDS011;6503;48.572;13.460;2022-08-19T10:51:41;13.00;;;11.32;;
12869;SDS011;6503;48.572;13.460;2022-08-19T10:54:28;13.07;;;11.27;;
12869;SDS011;6503;48.572;13.460;2022-08-19T10:57:12;11.48;;;10.15;;
12869;SDS011;6503;48.572;13.460;2022-08-19T10:59:43;12.07;;;10.93;;
12869;SDS011;6503;48.572;13.460;2022-08-19T11:02:14;12.02;;;10.80;;
12869;SDS011;6503;48.572;13.460;2022-08-19T11:04:44;11.95;;;10.07;;
12869;SDS011;6503;48.572;13.460;2022-08-19T11:07:15;13.23;;;10.32;;
12869;SDS011;6503;48.572;13.460;2022-08-19T11:09:47;13.35;;;11.27;;
12869;SDS011;6503;48.572;13.460;2022-08-19T11:12:23;12.38;;;11.07;;
12869;SDS011;6503;48.572;13.460;2022-08-19T11:14:53;11.73;;;10.23;;
12869;SDS011;6503;48.572;13.460;2022-08-19T11:17:23;10.48;;;9.48;;
12869;SDS011;6503;48.572;13.460;2022-08-19T11:19:53;11.32;;;9.50;;
12869;SDS011;6503;48.572;13.460;2022-08-19T11:22:23;12.98;;;11.48;;
12869;SDS011;6503;48.572;13.460;2022-08-19T11:24:53;11.30;;;9.25;;
12869;SDS011;6503;48.572;13.460;2022-08-19T11:27:25;12.50;;;10.82;;
12869;SDS011;6503;48.572;13.460;2022-08-19T11:29:57;15.35;;;13.65;;
12869;SDS011;6503;48.572;13.460;2022-08-19T11:32:30;19.40;;;13.60;;
12869;SDS011;6503;48.572;13.460;2022-08-19T11:35:00;14.75;;;12.80;;
12869;SDS011;6503;48.572;13.460;2022-08-19T11:37:31;20.00;;;11.88;;
12869;SDS011;6503;48.572;13.460;2022-08-19T11:40:05;14.40;;;12.60;;
12869;SDS011;6503;48.572;13.460;2022-08-19T11:42:38;14.00;;;11.88;;
12869;SDS011;6503;48.572;13.460;2022-08-19T11:45:24;12.98;;;11.57;;
12869;SDS011;6503;48.572;13.460;2022-08-19T11:47:57;12.73;;;11.13;;
12869;SDS011;6503;48.572;13.460;2022-08-19T11:50:28;11.60;;;10.40;;
12869;SDS011;6503;48.572;13.460;2022-08-19T11:52:58;10.63;;;9.48;;
12869;SDS011;6503;48.572;13.460;2022-08-19T11:55:29;12.50;;;9.75;;
12869;SDS011;6503;48.572;13.460;2022-08-19T11:58:01;12.18;;;9.95;;
12869;SDS011;6503;48.572;13.460;2022-08-19T12:00:32;11.98;;;10.15;;
12869;SDS011;6503;48.572;13.460;2022-08-19T12:03:03;10.93;;;9.45;;
12869;SDS011;6503;48.572;13.460;2022-08-19T12:05:36;10.88;;;9.07;;
12869;SDS011;6503;48.572;13.460;2022-08-19T12:08:07;14.13;;;11.07;;
12869;SDS011;6503;48.572;13.460;2022-08-19T12:10:39;11.85;;;10.25;;
12869;SDS011;6503;48.572;13.460;2022-08-19T12:13:14;9.85;;;8.88;;
12869;SDS011;6503;48.572;13.460;2022-08-19T12:15:45;9.23;;;8.07;;
12869;SDS011;6503;48.572;13.460;2022-08-19T12:18:16;8.75;;;7.82;;
12869;SDS011;6503;48.572;13.460;2022-08-19T12:20:46;10.75;;;8.57;;
12869;SDS011;6503;48.572;13.460;2022-08-19T12:23:19;9.55;;;8.43;;
12869;SDS011;6503;48.572;13.460;2022-08-19T12:25:51;9.95;;;7.80;;
12869;SDS011;6503;48.572;13.460;2022-08-19T12:28:25;9.75;;;8.75;;
12869;SDS011;6503;48.572;13.460;2022-08-19T12:30:57;10.15;;;7.82;;
12869;SDS011;6503;48.572;13.460;2022-08-19T12:33:29;8.43;;;7.47;;
12869;SDS011;6503;48.572;13.460;2022-08-19T12:36:03;8.70;;;7.50;;
12869;SDS011;6503;48.572;13.460;2022-08-19T12:38:35;8.95;;;7.53;;
12869;SDS011;6503;48.572;13.460;2022-08-19T12:41:06;7.78;;;6.97;;
12869;SDS011;6503;48.572;13.460;2022-08-19T12:43:44;9.00;;;6.75;;
12869;SDS011;6503;48.572;13.460;2022-08-19T12:46:15;6.78;;;6.07;;
12869;SDS011;6503;48.572;13.460;2022-08-19T12:48:50;8.38;;;6.80;;
12869;SDS011;6503;48.572;13.460;2022-08-19T12:51:20;9.15;;;6.43;;
12869;SDS011;6503;48.572;13.460;2022-08-19T12:53:51;9.70;;;6.68;;
12869;SDS011;6503;48.572;13.460;2022-08-19T12:56:23;6.63;;;5.50;;
12869;SDS011;6503;48.572;13.460;2022-08-19T12:59:00;8.73;;;5.57;;
12869;SDS011;6503;48.572;13.460;2022-08-19T13:01:30;7.70;;;6.10;;
12869;SDS011;6503;48.572;13.460;2022-08-19T13:04:00;9.73;;;5.88;;
12869;SDS011;6503;48.572;13.460;2022-08-19T13:06:31;9.88;;;5.82;;
12869;SDS011;6503;48.572;13.460;2022-08-19T13:09:02;6.57;;;5.95;;
12869;SDS011;6503;48.572;13.460;2022-08-19T13:11:32;6.57;;;5.78;;
12869;SDS011;6503;48.572;13.460;2022-08-19T13:14:05;6.47;;;5.78;;
12869;SDS011;6503;48.572;13.460;2022-08-19T13:16:35;7.80;;;5.72;;
12869;SDS011;6503;48.572;13.460;2022-08-19T13:19:06;8.30;;;6.05;;
12869;SDS011;6503;48.572;13.460;2022-08-19T13:21:38;8.82;;;6.53;;
12869;SDS011;6503;48.572;13.460;2022-08-19T13:24:08;8.45;;;5.90;;
12869;SDS011;6503;48.572;13.460;2022-08-19T13:26:41;10.60;;;5.72;;
12869;SDS011;6503;48.572;13.460;2022-08-19T13:29:14;10.07;;;5.97;;
12869;SDS011;6503;48.572;13.460;2022-08-19T13:32:04;9.13;;;6.22;;
12869;SDS011;6503;48.572;13.460;2022-08-19T13:34:51;7.15;;;5.30;;
12869;SDS011;6503;48.572;13.460;2022-08-19T13:37:23;5.45;;;4.95;;
12869;SDS011;6503;48.572;13.460;2022-08-19T13:40:06;7.18;;;5.05;;
12869;SDS011;6503;48.572;13.460;2022-08-19T13:42:41;8.07;;;5.80;;
12869;SDS011;6503;48.572;13.460;2022-08-19T13:45:16;8.70;;;5.18;;
12869;SDS011;6503;48.572;13.460;2022-08-19T13:47:50;6.78;;;5.45;;
12869;SDS011;6503;48.572;13.460;2022-08-19T13:50:23;7.15;;;5.60;;
12869;SDS011;6503;48.572;13.460;2022-08-19T13:52:54;8.02;;;5.40;;
12869;SDS011;6503;48.572;13.460;2022-08-19T13:55:25;10.93;;;5.15;;
12869;SDS011;6503;48.572;13.460;2022-08-19T13:57:57;6.95;;;5.10;;
12869;SDS011;6503;48.572;13.460;2022-08-19T14:00:33;6.22;;;4.30;;
12869;SDS011;6503;48.572;13.460;2022-08-19T14:03:04;5.10;;;4.60;;
12869;SDS011;6503;48.572;13.460;2022-08-19T14:08:04;5.28;;;4.30;;
12869;SDS011;6503;48.572;13.460;2022-08-19T14:10:34;5.55;;;4.05;;
12869;SDS011;6503;48.572;13.460;2022-08-19T14:13:05;4.97;;;4.00;;
12869;SDS011;6503;48.572;13.460;2022-08-19T14:15:39;6.53;;;4.72;;
12869;SDS011;6503;48.572;13.460;2022-08-19T14:18:09;5.97;;;3.45;;
12869;SDS011;6503;48.572;13.460;2022-08-19T14:20:40;5.05;;;4.43;;
12869;SDS011;6503;48.572;13.460;2022-08-19T14:23:11;4.20;;;3.80;;
12869;SDS011;6503;48.572;13.460;2022-08-19T14:25:40;6.63;;;4.07;;
12869;SDS011;6503;48.572;13.460;2022-08-19T14:28:12;8.65;;;5.53;;
12869;SDS011;6503;48.572;13.460;2022-08-19T14:30:46;5.10;;;4.60;;
12869;SDS011;6503;48.572;13.460;2022-08-19T14:33:15;4.80;;;4.28;;
12869;SDS011;6503;48.572;13.460;2022-08-19T14:35:46;6.88;;;4.90;;
12869;SDS011;6503;48.572;13.460;2022-08-19T14:38:17;4.00;;;3.60;;
12869;SDS011;6503;48.572;13.460;2022-08-19T14:40:49;8.48;;;4.43;;
12869;SDS011;6503;48.572;13.460;2022-08-19T14:43:21;5.55;;;3.58;;
12869;SDS011;6503;48.572;13.460;2022-08-19T14:45:53;6.05;;;3.58;;
12869;SDS011;6503;48.572;13.460;2022-08-19T14:48:24;5.00;;;3.80;;
12869;SDS011;6503;48.572;13.460;2022-08-19T14:50:54;5.10;;;4.03;;
12869;SDS011;6503;48.572;13.460;2022-08-19T14:53:26;3.80;;;3.40;;
12869;SDS011;6503;48.572;13.460;2022-08-19T14:56:08;4.63;;;3.65;;
12869;SDS011;6503;48.572;13.460;2022-08-19T14:58:40;5.32;;;3.35;;
12869;SDS011;6503;48.572;13.460;2022-08-19T15:01:15;4.45;;;3.83;;
12869;SDS011;6503;48.572;13.460;2022-08-19T15:03:47;4.43;;;3.40;;
12869;SDS011;6503;48.572;13.460;2022-08-19T15:06:18;5.53;;;3.85;;
12869;SDS011;6503;48.572;13.460;2022-08-19T15:08:49;4.43;;;3.50;;
12869;SDS011;6503;48.572;13.460;2022-08-19T15:11:21;4.15;;;3.75;;
12869;SDS011;6503;48.572;13.460;2022-08-19T15:13:54;4.15;;;3.53;;
12869;SDS011;6503;48.572;13.460;2022-08-19T15:16:28;4.88;;;3.03;;
12869;SDS011;6503;48.572;13.460;2022-08-19T15:18:58;8.02;;;3.00;;
12869;SDS011;6503;48.572;13.460;2022-08-19T15:21:28;4.55;;;3.08;;
12869;SDS011;6503;48.572;13.460;2022-08-19T15:23:59;4.70;;;3.65;;
12869;SDS011;6503;48.572;13.460;2022-08-19T15:26:30;5.70;;;3.67;;
12869;SDS011;6503;48.572;13.460;2022-08-19T15:29:04;6.43;;;4.15;;
12869;SDS011;6503;48.572;13.460;2022-08-19T15:31:37;8.85;;;5.10;;
12869;SDS011;6503;48.572;13.460;2022-08-19T15:34:09;6.70;;;5.32;;
12869;SDS011;6503;48.572;13.460;2022-08-19T15:36:39;7.22;;;6.18;;
12869;SDS011;6503;48.572;13.460;2022-08-19T15:39:14;7.47;;;6.40;;
12869;SDS011;6503;48.572;13.460;2022-08-19T15:41:48;7.68;;;6.68;;
12869;SDS011;6503;48.572;13.460;2022-08-19T15:44:20;7.07;;;6.38;;
12869;SDS011;6503;48.572;13.460;2022-08-19T15:46:53;7.18;;;6.47;;
12869;SDS011;6503;48.572;13.460;2022-08-19T15:49:24;8.43;;;5.95;;
12869;SDS011;6503;48.572;13.460;2022-08-19T15:51:54;6.53;;;5.78;;
12869;SDS011;6503;48.572;13.460;2022-08-19T15:54:25;7.55;;;5.60;;
12869;SDS011;6503;48.572;13.460;2022-08-19T15:59:40;7.03;;;5.72;;
12869;SDS011;6503;48.572;13.460;2022-08-19T16:02:29;8.30;;;6.40;;
12869;SDS011;6503;48.572;13.460;2022-08-19T16:05:17;8.45;;;6.53;;
12869;SDS011;6503;48.572;13.460;2022-08-19T16:08:07;6.88;;;5.50;;
12869;SDS011;6503;48.572;13.460;2022-08-19T16:10:37;7.57;;;6.70;;
12869;SDS011;6503;48.572;13.460;2022-08-19T16:13:08;6.78;;;6.10;;
12869;SDS011;6503;48.572;13.460;2022-08-19T16:15:38;6.85;;;5.90;;
12869;SDS011;6503;48.572;13.460;2022-08-19T16:18:13;7.05;;;6.45;;
12869;SDS011;6503;48.572;13.460;2022-08-19T16:20:44;6.47;;;5.85;;
12869;SDS011;6503;48.572;13.460;2022-08-19T16:25:43;6.85;;;6.15;;
12869;SDS011;6503;48.572;13.460;2022-08-19T16:28:16;9.10;;;6.80;;
12869;SDS011;6503;48.572;13.460;2022-08-19T16:30:48;14.82;;;6.70;;
12869;SDS011;6503;48.572;13.460;2022-08-19T16:33:21;7.47;;;6.57;;
12869;SDS011;6503;48.572;13.460;2022-08-19T16:35:52;8.55;;;7.10;;
12869;SDS011;6503;48.572;13.460;2022-08-19T16:38:22;10.95;;;7.53;;
12869;SDS011;6503;48.572;13.460;2022-08-19T16:40:54;7.65;;;6.85;;
12869;SDS011;6503;48.572;13.460;2022-08-19T16:43:26;8.23;;;6.88;;
12869;SDS011;6503;48.572;13.460;2022-08-19T16:46:01;8.40;;;6.88;;
12869;SDS011;6503;48.572;13.460;2022-08-19T16:48:39;8.52;;;6.15;;
12869;SDS011;6503;48.572;13.460;2022-08-19T16:51:11;7.80;;;7.00;;
12869;SDS011;6503;48.572;13.460;2022-08-19T16:53:42;9.00;;;6.93;;
12869;SDS011;6503;48.572;13.460;2022-08-19T16:56:12;6.75;;;6.15;;
12869;SDS011;6503;48.572;13.460;2022-08-19T16:58:43;9.13;;;7.28;;
12869;SDS011;6503;48.572;13.460;2022-08-19T17:01:15;9.43;;;7.97;;
12869;SDS011;6503;48.572;13.460;2022-08-19T17:03:48;9.65;;;7.65;;
12869;SDS011;6503;48.572;13.460;2022-08-19T17:06:19;8.65;;;7.53;;
12869;SDS011;6503;48.572;13.460;2022-08-19T17:08:53;7.68;;;6.57;;
12869;SDS011;6503;48.572;13.460;2022-08-19T17:11:29;10.35;;;6.95;;
12869;SDS011;6503;48.572;13.460;2022-08-19T17:14:00;6.85;;;6.25;;
12869;SDS011;6503;48.572;13.460;2022-08-19T17:16:32;6.50;;;5.70;;
12869;SDS011;6503;48.572;13.460;2022-08-19T17:19:11;9.43;;;5.65;;
12869;SDS011;6503;48.572;13.460;2022-08-19T17:21:42;7.72;;;6.65;;
12869;SDS011;6503;48.572;13.460;2022-08-19T17:24:17;8.30;;;5.93;;
12869;SDS011;6503;48.572;13.460;2022-08-19T17:26:48;9.32;;;6.55;;
12869;SDS011;6503;48.572;13.460;2022-08-19T17:29:19;5.30;;;4.80;;
12869;SDS011;6503;48.572;13.460;2022-08-19T17:31:50;5.10;;;2.90;;
12869;SDS011;6503;48.572;13.460;2022-08-19T17:34:24;6.28;;;2.88;;
12869;SDS011;6503;48.572;13.460;2022-08-19T17:36:55;3.08;;;2.58;;
12869;SDS011;6503;48.572;13.460;2022-08-19T17:39:25;4.00;;;2.45;;
12869;SDS011;6503;48.572;13.460;2022-08-19T17:41:55;4.70;;;2.83;;
12869;SDS011;6503;48.572;13.460;2022-08-19T17:44:26;3.20;;;2.90;;
12869;SDS011;6503;48.572;13.460;2022-08-19T17:46:58;4.32;;;3.38;;
12869;SDS011;6503;48.572;13.460;2022-08-19T17:49:31;5.43;;;3.42;;
12869;SDS011;6503;48.572;13.460;2022-08-19T17:52:03;4.18;;;3.20;;
12869;SDS011;6503;48.572;13.460;2022-08-19T17:54:34;4.82;;;3.70;;
12869;SDS011;6503;48.572;13.460;2022-08-19T17:57:06;4.57;;;4.07;;
12869;SDS011;6503;48.572;13.460;2022-08-19T17:59:36;6.35;;;3.85;;
12869;SDS011;6503;48.572;13.460;2022-08-19T18:02:07;5.93;;;4.20;;
12869;SDS011;6503;48.572;13.460;2022-08-19T18:04:40;5.57;;;4.00;;
12869;SDS011;6503;48.572;13.460;2022-08-19T18:07:10;8.80;;;5.05;;
12869;SDS011;6503;48.572;13.460;2022-08-19T18:09:47;11.65;;;6.80;;
12869;SDS011;6503;48.572;13.460;2022-08-19T18:12:21;11.02;;;6.05;;
12869;SDS011;6503;48.572;13.460;2022-08-19T18:14:52;9.82;;;6.28;;
12869;SDS011;6503;48.572;13.460;2022-08-19T18:17:22;17.80;;;7.65;;
12869;SDS011;6503;48.572;13.460;2022-08-19T18:19:55;17.23;;;9.07;;
12869;SDS011;6503;48.572;13.460;2022-08-19T18:22:27;18.58;;;9.68;;
12869;SDS011;6503;48.572;13.460;2022-08-19T18:25:02;13.35;;;9.30;;
12869;SDS011;6503;48.572;13.460;2022-08-19T18:27:35;16.38;;;9.63;;
12869;SDS011;6503;48.572;13.460;2022-08-19T18:30:06;14.23;;;9.77;;
12869;SDS011;6503;48.572;13.460;2022-08-19T18:32:37;17.02;;;10.70;;
12869;SDS011;6503;48.572;13.460;2022-08-19T18:35:13;18.95;;;12.32;;
12869;SDS011;6503;48.572;13.460;2022-08-19T18:37:46;18.77;;;12.20;;
12869;SDS011;6503;48.572;13.460;2022-08-19T18:40:16;18.92;;;13.35;;
12869;SDS011;6503;48.572;13.460;2022-08-19T18:43:04;20.85;;;14.73;;
12869;SDS011;6503;48.572;13.460;2022-08-19T18:45:50;17.70;;;13.20;;
12869;SDS011;6503;48.572;13.460;2022-08-19T18:48:37;16.08;;;13.02;;
12869;SDS011;6503;48.572;13.460;2022-08-19T18:51:26;18.35;;;12.43;;
12869;SDS011;6503;48.572;13.460;2022-08-19T18:53:57;18.45;;;12.77;;
12869;SDS011;6503;48.572;13.460;2022-08-19T18:56:33;15.07;;;12.27;;
12869;SDS011;6503;48.572;13.460;2022-08-19T18:59:07;19.15;;;14.50;;
12869;SDS011;6503;48.572;13.460;2022-08-19T19:01:39;17.50;;;12.90;;
12869;SDS011;6503;48.572;13.460;2022-08-19T19:04:16;16.17;;;12.77;;
12869;SDS011;6503;48.572;13.460;2022-08-19T19:06:53;18.98;;;13.20;;
12869;SDS011;6503;48.572;13.460;2022-08-19T19:09:23;18.15;;;12.98;;
12869;SDS011;6503;48.572;13.460;2022-08-19T19:11:55;17.40;;;14.20;;
12869;SDS011;6503;48.572;13.460;2022-08-19T19:14:26;17.45;;;12.75;;
12869;SDS011;6503;48.572;13.460;2022-08-19T19:16:59;17.67;;;13.85;;
12869;SDS011;6503;48.572;13.460;2022-08-19T19:19:32;18.48;;;13.85;;
12869;SDS011;6503;48.572;13.460;2022-08-19T19:22:11;16.73;;;13.43;;
12869;SDS011;6503;48.572;13.460;2022-08-19T19:24:44;16.25;;;12.93;;
12869;SDS011;6503;48.572;13.460;2022-08-19T19:27:16;17.92;;;13.55;;
12869;SDS011;6503;48.572;13.460;2022-08-19T19:29:47;19.35;;;14.35;;
12869;SDS011;6503;48.572;13.460;2022-08-19T19:32:18;16.52;;;12.70;;
12869;SDS011;6503;48.572;13.460;2022-08-19T19:34:51;20.08;;;14.27;;
12869;SDS011;6503;48.572;13.460;2022-08-19T19:37:23;18.97;;;14.57;;
12869;SDS011;6503;48.572;13.460;2022-08-19T19:39:53;14.65;;;11.40;;
12869;SDS011;6503;48.572;13.460;2022-08-19T19:42:23;17.63;;;11.75;;
12869;SDS011;6503;48.572;13.460;2022-08-19T19:44:53;16.65;;;12.07;;
12869;SDS011;6503;48.572;13.460;2022-08-19T19:47:32;17.83;;;11.37;;
12869;SDS011;6503;48.572;13.460;2022-08-19T19:50:03;14.18;;;10.70;;
12869;SDS011;6503;48.572;13.460;2022-08-19T19:52:36;15.60;;;11.90;;
12869;SDS011;6503;48.572;13.460;2022-08-19T19:55:07;15.90;;;11.02;;
12869;SDS011;6503;48.572;13.460;2022-08-19T19:57:41;18.73;;;12.68;;
12869;SDS011;6503;48.572;13.460;2022-08-19T20:00:11;23.00;;;13.40;;
12869;SDS011;6503;48.572;13.460;2022-08-19T20:02:43;17.80;;;12.88;;
12869;SDS011;6503;48.572;13.460;2022-08-19T20:05:13;16.73;;;12.63;;
12869;SDS011;6503;48.572;13.460;2022-08-19T20:07:48;17.23;;;13.52;;
12869;SDS011;6503;48.572;13.460;2022-08-19T20:10:35;16.58;;;13.10;;
12869;SDS011;6503;48.572;13.460;2022-08-19T20:13:07;21.25;;;15.45;;
12869;SDS011;6503;48.572;13.460;2022-08-19T20:15:38;18.80;;;14.43;;
12869;SDS011;6503;48.572;13.460;2022-08-19T20:18:09;19.08;;;15.75;;
12869;SDS011;6503;48.572;13.460;2022-08-19T20:20:40;20.33;;;15.85;;
12869;SDS011;6503;48.572;13.460;2022-08-19T20:23:14;21.23;;;15.88;;
12869;SDS011;6503;48.572;13.460;2022-08-19T20:25:46;24.55;;;17.92;;
12869;SDS011;6503;48.572;13.460;2022-08-19T20:28:17;21.95;;;16.98;;
12869;SDS011;6503;48.572;13.460;2022-08-19T20:30:51;21.70;;;16.20;;
12869;SDS011;6503;48.572;13.460;2022-08-19T20:33:21;22.00;;;16.20;;
12869;SDS011;6503;48.572;13.460;2022-08-19T20:35:51;20.77;;;16.35;;
12869;SDS011;6503;48.572;13.460;2022-08-19T20:38:24;20.10;;;15.63;;
12869;SDS011;6503;48.572;13.460;2022-08-19T20:40:54;21.92;;;16.27;;
12869;SDS011;6503;48.572;13.460;2022-08-19T20:43:25;22.95;;;17.23;;
12869;SDS011;6503;48.572;13.460;2022-08-19T20:45:54;23.55;;;18.38;;
12869;SDS011;6503;48.572;13.460;2022-08-19T20:48:24;23.73;;;18.17;;
12869;SDS011;6503;48.572;13.460;2022-08-19T20:50:54;20.92;;;17.75;;
12869;SDS011;6503;48.572;13.460;2022-08-19T20:53:26;24.58;;;18.83;;
12869;SDS011;6503;48.572;13.460;2022-08-19T20:55:56;24.10;;;18.60;;
12869;SDS011;6503;48.572;13.460;2022-08-19T20:58:26;23.38;;;17.92;;
12869;SDS011;6503;48.572;13.460;2022-08-19T21:00:56;27.38;;;18.35;;
12869;SDS011;6503;48.572;13.460;2022-08-19T21:03:29;22.63;;;17.38;;
12869;SDS011;6503;48.572;13.460;2022-08-19T21:06:00;20.63;;;16.90;;
12869;SDS011;6503;48.572;13.460;2022-08-19T21:08:34;21.92;;;17.15;;
12869;SDS011;6503;48.572;13.460;2022-08-19T21:11:05;19.67;;;16.05;;
12869;SDS011;6503;48.572;13.460;2022-08-19T21:13:35;21.15;;;16.65;;
12869;SDS011;6503;48.572;13.460;2022-08-19T21:16:05;19.00;;;16.02;;
12869;SDS011;6503;48.572;13.460;2022-08-19T21:18:35;23.40;;;16.10;;
12869;SDS011;6503;48.572;13.460;2022-08-19T21:21:05;20.35;;;15.57;;
12869;SDS011;6503;48.572;13.460;2022-08-19T21:23:37;18.02;;;14.95;;
12869;SDS011;6503;48.572;13.460;2022-08-19T21:26:09;19.48;;;15.00;;
12869;SDS011;6503;48.572;13.460;2022-08-19T21:28:39;16.30;;;14.18;;
12869;SDS011;6503;48.572;13.460;2022-08-19T21:31:08;16.48;;;13.50;;
12869;SDS011;6503;48.572;13.460;2022-08-19T21:33:40;17.98;;;13.20;;
12869;SDS011;6503;48.572;13.460;2022-08-19T21:36:11;15.70;;;13.18;;
12869;SDS011;6503;48.572;13.460;2022-08-19T21:38:44;18.52;;;14.30;;
12869;SDS011;6503;48.572;13.460;2022-08-19T21:41:14;18.40;;;14.15;;
12869;SDS011;6503;48.572;13.460;2022-08-19T21:43:44;16.27;;;14.05;;
12869;SDS011;6503;48.572;13.460;2022-08-19T21:46:14;15.77;;;14.07;;
12869;SDS011;6503;48.572;13.460;2022-08-19T21:48:43;17.60;;;15.68;;
12869;SDS011;6503;48.572;13.460;2022-08-19T21:51:13;18.00;;;15.90;;
12869;SDS011;6503;48.572;13.460;2022-08-19T21:53:45;19.50;;;16.27;;
12869;SDS011;6503;48.572;13.460;2022-08-19T21:56:15;20.73;;;17.80;;
12869;SDS011;6503;48.572;13.460;2022-08-19T21:58:45;19.38;;;15.60;;
12869;SDS011;6503;48.572;13.460;2022-08-19T22:01:15;17.08;;;14.77;;
12869;SDS011;6503;48.572;13.460;2022-08-19T22:03:45;16.83;;;14.45;;
12869;SDS011;6503;48.572;13.460;2022-08-19T22:06:15;18.95;;;14.95;;
12869;SDS011;6503;48.572;13.460;2022-08-19T22:08:47;14.82;;;12.95;;
12869;SDS011;6503;48.572;13.460;2022-08-19T22:11:16;14.70;;;11.38;;
12869;SDS011;6503;48.572;13.460;2022-08-19T22:13:46;13.15;;;10.63;;
12869;SDS011;6503;48.572;13.460;2022-08-19T22:16:19;10.43;;;9.20;;
12869;SDS011;6503;48.572;13.460;2022-08-19T22:18:49;14.68;;;10.48;;
12869;SDS011;6503;48.572;13.460;2022-08-19T22:21:19;9.73;;;8.73;;
12869;SDS011;6503;48.572;13.460;2022-08-19T22:23:51;11.18;;;8.82;;
12869;SDS011;6503;48.572;13.460;2022-08-19T22:26:22;9.77;;;8.35;;
12869;SDS011;6503;48.572;13.460;2022-08-19T22:28:52;10.18;;;9.00;;
12869;SDS011;6503;48.572;13.460;2022-08-19T22:31:22;9.82;;;8.73;;
12869;SDS011;6503;48.572;13.460;2022-08-19T22:33:52;8.15;;;7.35;;
12869;SDS011;6503;48.572;13.460;2022-08-19T22:36:22;8.32;;;7.43;;
12869;SDS011;6503;48.572;13.460;2022-08-19T22:38:54;8.50;;;7.68;;
12869;SDS011;6503;48.572;13.460;2022-08-19T22:41:24;7.82;;;6.97;;
12869;SDS011;6503;48.572;13.460;2022-08-19T22:43:54;8.88;;;7.60;;
12869;SDS011;6503;48.572;13.460;2022-08-19T22:46:24;8.03;;;7.00;;
12869;SDS011;6503;48.572;13.460;2022-08-19T22:48:54;9.05;;;7.55;;
12869;SDS011;6503;48.572;13.460;2022-08-19T22:51:24;8.13;;;7.32;;
12869;SDS011;6503;48.572;13.460;2022-08-19T22:54:12;8.63;;;7.22;;
12869;SDS011;6503;48.572;13.460;2022-08-19T22:56:43;9.23;;;6.85;;
12869;SDS011;6503;48.572;13.460;2022-08-19T22:59:14;8.40;;;7.55;;